createdAt,value
2024-02-23T00:00:12.517Z,61.57
2024-02-23T00:03:14.648Z,61.61
2024-02-23T00:06:18.896Z,61.07
2024-02-23T00:09:21.126Z,61.44
2024-02-23T00:12:23.382Z,61.39
2024-02-23T00:15:26.557Z,61.46
2024-02-23T00:18:28.857Z,61.56
2024-02-23T00:21:31.114Z,61.47
2024-02-23T00:24:33.506Z,61.72
2024-02-23T00:27:35.698Z,61.77
2024-02-23T00:30:38.080Z,61.53
2024-02-23T00:33:43.433Z,61.57
2024-02-23T00:36:46.132Z,61.24
2024-02-23T00:39:48.542Z,62.02
2024-02-23T00:42:50.783Z,61.42
2024-02-23T00:45:52.950Z,60.74
2024-02-23T00:48:55.511Z,61.05
2024-02-23T00:51:57.721Z,61.05
2024-02-23T00:54:59.921Z,60.93
2024-02-23T00:58:02.220Z,60.96
2024-02-23T01:01:04.641Z,60.63
2024-02-23T01:04:06.897Z,60.90
2024-02-23T01:07:09.080Z,61.38
2024-02-23T01:10:11.320Z,61.48
2024-02-23T01:13:13.571Z,62.98
2024-02-23T01:16:16.617Z,62.78
2024-02-23T01:19:20.096Z,62.97
2024-02-23T01:22:22.447Z,63.79
2024-02-23T01:25:24.716Z,64.47
2024-02-23T01:28:27.007Z,65.15
2024-02-23T01:31:29.192Z,65.98
2024-02-23T01:34:31.311Z,67.26
2024-02-23T01:37:33.641Z,68.37
2024-02-23T01:40:36.231Z,68.91
2024-02-23T01:43:38.721Z,70.33
2024-02-23T01:46:40.924Z,71.80
2024-02-23T01:49:43.664Z,73.50
2024-02-23T01:52:45.876Z,74.59
2024-02-23T01:55:48.799Z,75.40
2024-02-23T01:58:51.164Z,76.23
2024-02-23T02:01:53.426Z,77.70
2024-02-23T02:04:55.722Z,81.15
2024-02-23T02:08:00.564Z,82.14
2024-02-23T02:11:03.237Z,84.35
2024-02-23T02:14:05.537Z,85.96
2024-02-23T02:17:08.300Z,85.50
2024-02-23T02:20:14.888Z,86.48
2024-02-23T02:23:17.593Z,88.51
2024-02-23T02:26:20.544Z,87.95
2024-02-23T02:29:23.112Z,87.85
2024-02-23T02:32:25.587Z,88.12
2024-02-23T02:35:27.882Z,90.69
2024-02-23T02:38:30.283Z,89.34
2024-02-23T02:41:32.671Z,88.81
2024-02-23T02:44:34.940Z,88.48
2024-02-23T02:47:37.744Z,89.27
2024-02-23T02:50:40.745Z,88.85
2024-02-23T02:53:43.047Z,87.19
2024-02-23T02:56:46.805Z,89.18
2024-02-23T02:59:51.204Z,90.05
2024-02-23T03:02:54.230Z,95.08
2024-02-23T03:05:56.525Z,96.40
2024-02-23T03:08:58.692Z,99.75
2024-02-23T03:12:00.971Z,98.62
2024-02-23T03:15:06.664Z,100.00
2024-02-23T03:18:10.852Z,100.00
2024-02-23T03:21:14.211Z,100.00
2024-02-23T03:24:16.396Z,100.00
2024-02-23T03:27:18.576Z,100.00
2024-02-23T03:30:20.779Z,100.00
2024-02-23T03:33:23.078Z,100.00
2024-02-23T03:36:25.319Z,100.00
2024-02-23T03:39:27.564Z,100.00
2024-02-23T03:42:29.716Z,100.00
2024-02-23T03:45:31.955Z,100.00
2024-02-23T03:48:34.219Z,100.00
2024-02-23T03:51:40.333Z,100.00
2024-02-23T03:54:42.631Z,100.00
2024-02-23T03:57:47.468Z,100.00
2024-02-23T04:00:49.982Z,100.00
2024-02-23T04:03:52.172Z,100.00
2024-02-23T04:06:54.327Z,100.00
2024-02-23T04:09:56.437Z,100.00
2024-02-23T04:12:59.223Z,100.00
2024-02-23T04:16:02.247Z,100.00
2024-02-23T04:19:04.628Z,100.00
2024-02-23T04:22:09.833Z,100.00
2024-02-23T04:25:12.063Z,100.00
2024-02-23T04:28:14.245Z,100.00
2024-02-23T04:31:16.590Z,100.00
2024-02-23T04:34:18.824Z,100.00
2024-02-23T04:37:21.094Z,100.00
2024-02-23T04:40:23.287Z,100.00
2024-02-23T04:43:26.039Z,100.00
2024-02-23T04:47:26.506Z,100.00
2024-02-23T04:51:27.375Z,100.00
2024-02-23T04:55:28.092Z,100.00
2024-02-23T04:59:29.356Z,100.00
2024-02-23T05:03:30.139Z,100.00
2024-02-23T05:07:33.908Z,100.00
2024-02-23T05:11:34.861Z,100.00
2024-02-23T05:15:35.664Z,100.00
2024-02-23T05:19:37.586Z,100.00
2024-02-23T05:23:38.799Z,100.00
2024-02-23T05:26:41.023Z,100.00
2024-02-23T05:29:43.244Z,100.00
2024-02-23T05:32:45.632Z,100.00
2024-02-23T05:35:49.842Z,100.00
2024-02-23T05:38:51.994Z,100.00
2024-02-23T05:41:54.311Z,100.00
2024-02-23T05:44:56.504Z,100.00
2024-02-23T05:47:59.121Z,100.00
2024-02-23T05:51:01.635Z,100.00
2024-02-23T05:54:03.987Z,100.00
2024-02-23T05:57:06.210Z,100.00
2024-02-23T06:00:08.751Z,100.00
2024-02-23T06:03:14.580Z,100.00
2024-02-23T06:06:17.032Z,100.00
2024-02-23T06:09:20.224Z,100.00
2024-02-23T06:12:22.933Z,100.00
2024-02-23T06:15:25.154Z,100.00
2024-02-23T06:18:27.335Z,100.00
2024-02-23T06:21:29.622Z,100.00
2024-02-23T06:24:31.767Z,100.00
2024-02-23T06:27:34.174Z,100.00
2024-02-23T06:30:36.297Z,100.00
2024-02-23T06:33:38.714Z,100.00
2024-02-23T06:36:41.148Z,100.00
2024-02-23T06:39:43.341Z,100.00
2024-02-23T06:42:45.510Z,100.00
2024-02-23T06:45:47.682Z,100.00
2024-02-23T06:48:50.113Z,100.00
2024-02-23T06:51:52.354Z,100.00
2024-02-23T06:54:54.552Z,100.00
2024-02-23T06:57:56.697Z,100.00
2024-02-23T07:00:59.091Z,100.00
2024-02-23T07:04:01.423Z,100.00
2024-02-23T07:07:08.359Z,100.00
2024-02-23T07:10:11.662Z,100.00
2024-02-23T07:13:13.913Z,100.00
2024-02-23T07:16:16.196Z,100.00
2024-02-23T07:19:18.585Z,100.00
2024-02-23T07:22:21.510Z,100.00
2024-02-23T07:25:23.815Z,100.00
2024-02-23T07:28:25.921Z,100.00
2024-02-23T07:31:28.418Z,100.00
2024-02-23T07:34:32.612Z,100.00
2024-02-23T07:37:35.006Z,100.00
2024-02-23T07:40:37.313Z,100.00
2024-02-23T07:43:39.467Z,100.00
2024-02-23T07:46:42.946Z,100.00
2024-02-23T07:49:45.232Z,100.00
2024-02-23T07:52:47.537Z,100.00
2024-02-23T07:55:49.762Z,100.00
2024-02-23T07:58:53.322Z,100.00
2024-02-23T08:01:56.704Z,100.00
2024-02-23T08:04:59.156Z,100.00
2024-02-23T08:08:02.593Z,100.00
2024-02-23T08:11:05.271Z,100.00
2024-02-23T08:14:07.568Z,100.00
2024-02-23T08:17:09.790Z,100.00
2024-02-23T08:20:12.305Z,100.00
2024-02-23T08:23:14.961Z,100.00
2024-02-23T08:26:17.421Z,100.00
2024-02-23T08:29:19.716Z,100.00
2024-02-23T08:32:22.034Z,100.00
2024-02-23T08:35:24.498Z,100.00
2024-02-23T08:38:26.827Z,100.00
2024-02-23T08:41:29.000Z,100.00
2024-02-23T08:44:31.243Z,100.00
2024-02-23T08:47:36.148Z,100.00
2024-02-23T08:50:39.514Z,100.00
2024-02-23T08:53:45.679Z,100.00
2024-02-23T08:56:47.978Z,100.00
2024-02-23T08:59:50.995Z,100.00
2024-02-23T09:02:53.174Z,100.00
2024-02-23T09:05:55.467Z,100.00
2024-02-23T09:08:57.766Z,100.00
2024-02-23T09:12:00.069Z,100.00
2024-02-23T09:15:02.345Z,100.00
2024-02-23T09:18:04.782Z,100.00
2024-02-23T09:21:07.851Z,100.00
2024-02-23T09:24:10.151Z,100.00
2024-02-23T09:27:12.383Z,100.00
2024-02-23T09:30:15.251Z,100.00
2024-02-23T09:33:17.535Z,100.00
2024-02-23T09:36:19.840Z,100.00
2024-02-23T09:39:22.026Z,100.00
2024-02-23T09:42:29.736Z,100.00
2024-02-23T09:45:36.240Z,100.00
2024-02-23T09:48:40.791Z,100.00
2024-02-23T09:51:44.893Z,100.00
2024-02-23T09:54:47.126Z,100.00
2024-02-23T09:57:52.473Z,100.00
2024-02-23T10:00:55.131Z,100.00
2024-02-23T10:04:01.434Z,100.00
2024-02-23T10:07:05.796Z,100.00
2024-02-23T10:10:09.746Z,100.00
2024-02-23T10:13:11.970Z,100.00
2024-02-23T10:16:15.828Z,100.00
2024-02-23T10:19:18.691Z,100.00
2024-02-23T10:22:22.646Z,100.00
2024-02-23T10:25:25.552Z,100.00
2024-02-23T10:28:29.329Z,100.00
2024-02-23T10:31:39.953Z,100.00
2024-02-23T10:34:45.511Z,100.00
2024-02-23T10:37:54.526Z,100.00
2024-02-23T10:40:59.982Z,100.00
2024-02-23T10:44:04.771Z,100.00
2024-02-23T10:47:08.350Z,100.00
2024-02-23T10:50:11.904Z,100.00
2024-02-23T10:53:15.297Z,100.00
2024-02-23T10:56:17.610Z,100.00
2024-02-23T10:59:20.898Z,100.00
2024-02-23T11:02:26.838Z,100.00
2024-02-23T11:05:29.512Z,100.00
2024-02-23T11:08:34.185Z,100.00
2024-02-23T11:11:38.171Z,100.00
2024-02-23T11:14:40.695Z,100.00
2024-02-23T11:17:43.014Z,100.00
2024-02-23T11:20:45.268Z,100.00
2024-02-23T11:23:53.467Z,100.00
2024-02-23T11:27:00.266Z,100.00
2024-02-23T11:30:04.770Z,100.00
2024-02-23T11:33:09.240Z,100.00
2024-02-23T11:36:12.295Z,100.00
2024-02-23T11:39:14.804Z,100.00
2024-02-23T11:42:17.032Z,100.00
2024-02-23T11:45:19.525Z,100.00
2024-02-23T11:48:24.697Z,100.00
2024-02-23T11:51:30.326Z,100.00
2024-02-23T11:54:32.594Z,100.00
2024-02-23T11:57:43.056Z,100.00
2024-02-23T12:00:51.979Z,100.00
2024-02-23T12:03:54.223Z,100.00
2024-02-23T12:06:57.262Z,100.00
2024-02-23T12:09:59.700Z,100.00
2024-02-23T12:13:01.999Z,100.00
2024-02-23T12:16:04.600Z,100.00
2024-02-23T12:19:09.378Z,100.00
2024-02-23T12:22:13.461Z,100.00
2024-02-23T12:25:16.348Z,100.00
2024-02-23T12:28:21.850Z,100.00
2024-02-23T12:31:27.623Z,100.00
2024-02-23T12:34:30.284Z,100.00
2024-02-23T12:37:36.644Z,100.00
2024-02-23T12:40:39.359Z,100.00
2024-02-23T12:43:43.496Z,100.00
2024-02-23T12:46:46.672Z,100.00
2024-02-23T12:49:50.211Z,100.00
2024-02-23T12:52:53.292Z,100.00
2024-02-23T12:55:55.613Z,100.00
2024-02-23T12:58:58.579Z,100.00
2024-02-23T13:02:01.158Z,100.00
2024-02-23T13:05:03.796Z,100.00
2024-02-23T13:08:06.710Z,100.00
2024-02-23T13:11:09.339Z,100.00
2024-02-23T13:14:11.730Z,100.00
2024-02-23T13:17:14.057Z,100.00
2024-02-23T13:20:16.365Z,100.00
2024-02-23T13:23:18.696Z,100.00
2024-02-23T13:26:20.964Z,100.00
2024-02-23T13:29:23.280Z,100.00
2024-02-23T13:32:25.794Z,100.00
2024-02-23T13:35:36.059Z,100.00
2024-02-23T13:38:40.685Z,100.00
2024-02-23T13:41:43.448Z,100.00
2024-02-23T13:44:46.361Z,100.00
2024-02-23T13:48:02.852Z,100.00
2024-02-23T13:51:06.151Z,100.00
2024-02-23T13:54:08.392Z,100.00
2024-02-23T13:57:10.731Z,100.00
2024-02-23T14:00:13.878Z,100.00
2024-02-23T14:03:21.769Z,100.00
2024-02-23T14:06:25.048Z,100.00
2024-02-23T14:09:27.292Z,100.00
2024-02-23T14:12:30.627Z,100.00
2024-02-23T14:15:41.176Z,100.00
2024-02-23T14:18:45.454Z,100.00
2024-02-23T14:21:49.681Z,100.00
2024-02-23T14:24:52.147Z,100.00
2024-02-23T14:27:56.688Z,100.00
2024-02-23T14:30:59.298Z,100.00
2024-02-23T14:34:01.574Z,100.00
2024-02-23T14:37:04.005Z,100.00
2024-02-23T14:40:06.912Z,100.00
2024-02-23T14:43:10.608Z,100.00
2024-02-23T14:46:13.356Z,100.00
2024-02-23T14:49:15.647Z,100.00
2024-02-23T14:52:17.990Z,100.00
2024-02-23T14:55:20.157Z,100.00
2024-02-23T14:58:22.394Z,100.00
2024-02-23T15:01:24.720Z,100.00
2024-02-23T15:04:27.012Z,100.00
2024-02-23T15:07:29.552Z,100.00
2024-02-23T15:10:37.737Z,100.00
2024-02-23T15:13:40.239Z,100.00
2024-02-23T15:16:42.466Z,100.00
2024-02-23T15:19:44.700Z,100.00
2024-02-23T15:22:48.064Z,100.00
2024-02-23T15:25:57.483Z,100.00
2024-02-23T15:29:06.729Z,100.00
2024-02-23T15:32:09.014Z,100.00
2024-02-23T15:35:11.303Z,100.00
2024-02-23T15:38:13.537Z,100.00
2024-02-23T15:41:15.825Z,100.00
2024-02-23T15:44:20.814Z,100.00
2024-02-23T15:47:23.749Z,100.00
2024-02-23T15:50:42.894Z,100.00
2024-02-23T15:53:50.690Z,100.00
2024-02-23T15:56:52.936Z,100.00
2024-02-23T16:00:02.740Z,100.00
2024-02-23T16:03:07.206Z,100.00
2024-02-23T16:06:09.585Z,100.00
2024-02-23T16:09:16.127Z,100.00
2024-02-23T16:12:18.452Z,100.00
2024-02-23T16:15:20.976Z,100.00
2024-02-23T16:18:23.255Z,100.00
2024-02-23T16:21:25.512Z,100.00
2024-02-23T16:24:27.700Z,100.00
2024-02-23T16:27:29.947Z,100.00
2024-02-23T16:30:33.684Z,100.00
2024-02-23T16:33:35.970Z,100.00
2024-02-23T16:36:38.149Z,100.00
2024-02-23T16:39:40.304Z,100.00
2024-02-23T16:42:43.595Z,100.00
2024-02-23T16:45:51.145Z,100.00
2024-02-23T16:48:53.399Z,100.00
2024-02-23T16:51:55.813Z,100.00
2024-02-23T16:54:59.126Z,100.00
2024-02-23T16:58:01.369Z,100.00
2024-02-23T17:01:05.895Z,100.00
2024-02-23T17:04:08.217Z,100.00
2024-02-23T17:07:10.507Z,100.00
2024-02-23T17:10:12.716Z,100.00
2024-02-23T17:13:14.864Z,100.00
2024-02-23T17:16:17.067Z,100.00
2024-02-23T17:19:19.263Z,100.00
2024-02-23T17:22:25.819Z,100.00
2024-02-23T17:25:28.012Z,100.00
2024-02-23T17:28:31.560Z,100.00
2024-02-23T17:31:33.950Z,100.00
2024-02-23T17:34:36.198Z,100.00
2024-02-23T17:37:38.593Z,100.00
2024-02-23T17:40:40.800Z,100.00
2024-02-23T17:43:42.987Z,100.00
2024-02-23T17:46:48.943Z,100.00
2024-02-23T17:49:51.401Z,100.00
2024-02-23T17:52:53.714Z,100.00
2024-02-23T17:55:58.709Z,100.00
2024-02-23T17:59:01.233Z,100.00
2024-02-23T18:02:03.615Z,100.00
2024-02-23T18:05:06.260Z,100.00
2024-02-23T18:08:08.950Z,100.00
2024-02-23T18:11:11.396Z,100.00
2024-02-23T18:14:17.022Z,100.00
2024-02-23T18:17:19.301Z,100.00
2024-02-23T18:20:21.570Z,100.00
2024-02-23T18:23:24.190Z,100.00
2024-02-23T18:26:26.396Z,100.00
2024-02-23T18:29:28.784Z,100.00
2024-02-23T18:32:31.143Z,100.00
2024-02-23T18:35:33.562Z,100.00
2024-02-23T18:38:35.813Z,100.00
2024-02-23T18:41:41.311Z,100.00
2024-02-23T18:44:43.676Z,100.00
2024-02-23T18:47:46.331Z,100.00
2024-02-23T18:50:49.534Z,100.00
2024-02-23T18:53:51.815Z,100.00
2024-02-23T18:56:54.296Z,100.00
2024-02-23T18:59:56.999Z,100.00
2024-02-23T19:02:59.346Z,100.00
2024-02-23T19:06:02.078Z,100.00
2024-02-23T19:09:06.197Z,100.00
2024-02-23T19:12:10.699Z,100.00
2024-02-23T19:15:13.244Z,100.00
2024-02-23T19:18:15.634Z,100.00
2024-02-23T19:21:19.577Z,100.00
2024-02-23T19:24:22.165Z,100.00
2024-02-23T19:27:24.445Z,100.00
2024-02-23T19:30:37.358Z,100.00
2024-02-23T19:33:39.991Z,100.00
2024-02-23T19:36:42.299Z,100.00
2024-02-23T19:39:47.389Z,100.00
2024-02-23T19:42:51.545Z,100.00
2024-02-23T19:46:00.687Z,100.00
2024-02-23T19:49:10.116Z,100.00
2024-02-23T19:52:15.069Z,100.00
2024-02-23T19:55:17.675Z,100.00
2024-02-23T19:58:19.847Z,100.00
2024-02-23T20:01:22.364Z,100.00
2024-02-23T20:04:24.609Z,100.00
2024-02-23T20:07:26.928Z,100.00
2024-02-23T20:10:38.257Z,100.00
2024-02-23T20:13:40.807Z,100.00
2024-02-23T20:16:43.136Z,100.00
2024-02-23T20:19:45.492Z,100.00
2024-02-23T20:22:47.789Z,100.00
2024-02-23T20:25:50.030Z,100.00
2024-02-23T20:28:52.279Z,100.00
2024-02-23T20:31:54.474Z,100.00
2024-02-23T20:34:58.163Z,100.00
2024-02-23T20:38:01.858Z,100.00
2024-02-23T20:41:04.485Z,100.00
2024-02-23T20:44:06.668Z,100.00
2024-02-23T20:47:10.394Z,100.00
2024-02-23T20:50:12.907Z,100.00
2024-02-23T20:53:15.204Z,100.00
2024-02-23T20:56:18.576Z,100.00
2024-02-23T20:59:20.947Z,100.00
2024-02-23T21:02:23.407Z,100.00
2024-02-23T21:05:25.704Z,100.00
2024-02-23T21:08:27.894Z,100.00
2024-02-23T21:11:30.577Z,100.00
2024-02-23T21:14:33.112Z,100.00
2024-02-23T21:17:35.359Z,100.00
2024-02-23T21:20:37.777Z,100.00
2024-02-23T21:23:40.145Z,100.00
2024-02-23T21:26:44.156Z,100.00
2024-02-23T21:29:46.716Z,100.00
2024-02-23T21:32:49.602Z,100.00
2024-02-23T21:35:51.865Z,100.00
2024-02-23T21:38:54.052Z,100.00
2024-02-23T21:41:56.442Z,100.00
2024-02-23T21:44:58.705Z,100.00
2024-02-23T21:48:01.097Z,100.00
2024-02-23T21:51:04.623Z,100.00
2024-02-23T21:54:06.853Z,100.00
2024-02-23T21:57:10.306Z,100.00
2024-02-23T22:00:12.991Z,100.00
2024-02-23T22:03:15.250Z,100.00
2024-02-23T22:06:20.557Z,100.00
2024-02-23T22:09:22.772Z,100.00
2024-02-23T22:12:29.231Z,100.00
2024-02-23T22:15:31.347Z,100.00
2024-02-23T22:18:34.584Z,100.00
2024-02-23T22:21:37.189Z,100.00
2024-02-23T22:24:39.777Z,100.00
2024-02-23T22:27:41.957Z,100.00
2024-02-23T22:30:49.340Z,100.00
2024-02-23T22:33:51.658Z,100.00
2024-02-23T22:36:53.923Z,100.00
2024-02-23T22:39:56.078Z,100.00
2024-02-23T22:42:58.682Z,100.00
2024-02-23T22:46:02.237Z,100.00
2024-02-23T22:49:05.086Z,100.00
2024-02-23T22:52:07.714Z,100.00
2024-02-23T22:55:09.953Z,100.00
2024-02-23T22:58:12.577Z,100.00
2024-02-23T23:01:15.079Z,100.00
2024-02-23T23:04:17.358Z,100.00
2024-02-23T23:07:19.684Z,100.00
2024-02-23T23:10:21.924Z,100.00
2024-02-23T23:13:23.970Z,100.00
2024-02-23T23:16:26.209Z,100.00
2024-02-23T23:19:28.548Z,100.00
2024-02-23T23:22:30.801Z,100.00
2024-02-23T23:25:34.652Z,100.00
2024-02-23T23:28:36.853Z,100.00
2024-02-23T23:31:39.056Z,100.00
2024-02-23T23:34:44.300Z,100.00
2024-02-23T23:37:46.496Z,100.00
2024-02-23T23:40:48.719Z,100.00
2024-02-23T23:43:51.364Z,100.00
2024-02-23T23:46:53.750Z,100.00
2024-02-23T23:49:55.928Z,100.00
2024-02-23T23:52:58.087Z,100.00
2024-02-23T23:56:00.201Z,100.00
2024-02-23T23:59:02.322Z,100.00
